Terminal Aerodrome Forecast
Issued by NWS

Home | Current Version | Previous Version | Text Only | Print | Product List | Glossary On
Versions: 1 2 3 4 5 6 7 8 9 10 11 12 13 14 15 16 17 18 19 20 21 22 23 24 25 26 27 28 29 30 31 32 33 34
206
FTUS43 KPAH 231612 AAA
TAFOWB
TAF AMD
KOWB 231612Z 2316/2412 18012KT P6SM SCT035 BKN250
     FM240000 18008KT P6SM BKN250
     FM240900 18013KT P6SM SCT035 BKN130=

USA.gov is the U.S. government's official web portal to all federal, state and local government web resources and services.